sensor_id;sensor_type;location;lat;lon;timestamp;temperature;humidity
6988;DHT22;3534;49.960;8.018;2022-07-06T00:01:15;20.80;99.90
6988;DHT22;3534;49.960;8.018;2022-07-06T00:03:41;20.90;99.90
6988;DHT22;3534;49.960;8.018;2022-07-06T00:06:09;20.90;99.90
6988;DHT22;3534;49.960;8.018;2022-07-06T00:08:36;21.00;99.90
6988;DHT22;3534;49.960;8.018;2022-07-06T00:11:03;20.90;99.90
6988;DHT22;3534;49.960;8.018;2022-07-06T00:13:30;21.00;99.90
6988;DHT22;3534;49.960;8.018;2022-07-06T00:15:56;21.00;99.90
6988;DHT22;3534;49.960;8.018;2022-07-06T00:18:23;21.10;99.90
6988;DHT22;3534;49.960;8.018;2022-07-06T00:20:50;21.20;99.90
6988;DHT22;3534;49.960;8.018;2022-07-06T00:23:18;21.20;99.90
6988;DHT22;3534;49.960;8.018;2022-07-06T00:25:45;21.20;99.90
6988;DHT22;3534;49.960;8.018;2022-07-06T00:28:11;21.20;99.90
6988;DHT22;3534;49.960;8.018;2022-07-06T00:30:38;21.10;99.90
6988;DHT22;3534;49.960;8.018;2022-07-06T00:33:05;21.10;99.90
6988;DHT22;3534;49.960;8.018;2022-07-06T00:35:32;21.00;99.90
6988;DHT22;3534;49.960;8.018;2022-07-06T00:37:59;21.00;99.90
6988;DHT22;3534;49.960;8.018;2022-07-06T00:40:27;21.00;99.90
6988;DHT22;3534;49.960;8.018;2022-07-06T00:42:55;21.00;99.90
6988;DHT22;3534;49.960;8.018;2022-07-06T00:45:22;21.00;99.90
6988;DHT22;3534;49.960;8.018;2022-07-06T00:47:49;21.00;99.90
6988;DHT22;3534;49.960;8.018;2022-07-06T00:50:17;21.00;99.90
6988;DHT22;3534;49.960;8.018;2022-07-06T00:52:47;21.00;99.90
6988;DHT22;3534;49.960;8.018;2022-07-06T00:55:17;21.00;99.90
6988;DHT22;3534;49.960;8.018;2022-07-06T00:57:46;21.00;99.90
6988;DHT22;3534;49.960;8.018;2022-07-06T01:00:15;21.10;99.90
6988;DHT22;3534;49.960;8.018;2022-07-06T01:02:43;21.00;99.90
6988;DHT22;3534;49.960;8.018;2022-07-06T01:05:11;21.00;99.90
6988;DHT22;3534;49.960;8.018;2022-07-06T01:07:40;20.80;99.90
6988;DHT22;3534;49.960;8.018;2022-07-06T01:10:08;20.80;99.90
6988;DHT22;3534;49.960;8.018;2022-07-06T01:12:36;20.70;99.90
6988;DHT22;3534;49.960;8.018;2022-07-06T01:15:06;20.70;99.90
6988;DHT22;3534;49.960;8.018;2022-07-06T01:17:33;20.70;99.90
6988;DHT22;3534;49.960;8.018;2022-07-06T01:20:10;20.70;99.90
6988;DHT22;3534;49.960;8.018;2022-07-06T01:22:37;20.60;99.90
6988;DHT22;3534;49.960;8.018;2022-07-06T01:25:05;20.50;99.90
6988;DHT22;3534;49.960;8.018;2022-07-06T01:27:33;20.50;99.90
6988;DHT22;3534;49.960;8.018;2022-07-06T01:30:03;20.30;99.90
6988;DHT22;3534;49.960;8.018;2022-07-06T01:32:30;20.20;99.90
6988;DHT22;3534;49.960;8.018;2022-07-06T01:34:57;20.10;99.90
6988;DHT22;3534;49.960;8.018;2022-07-06T01:37:25;20.10;99.90
6988;DHT22;3534;49.960;8.018;2022-07-06T01:39:51;20.10;99.90
6988;DHT22;3534;49.960;8.018;2022-07-06T01:42:18;20.20;99.90
6988;DHT22;3534;49.960;8.018;2022-07-06T01:44:45;20.20;99.90
6988;DHT22;3534;49.960;8.018;2022-07-06T01:47:12;20.20;99.90
6988;DHT22;3534;49.960;8.018;2022-07-06T01:49:38;20.00;99.90
6988;DHT22;3534;49.960;8.018;2022-07-06T01:52:05;19.80;99.90
6988;DHT22;3534;49.960;8.018;2022-07-06T01:54:33;19.80;99.90
6988;DHT22;3534;49.960;8.018;2022-07-06T01:57:00;19.80;99.90
6988;DHT22;3534;49.960;8.018;2022-07-06T01:59:27;19.70;99.90
6988;DHT22;3534;49.960;8.018;2022-07-06T02:01:53;19.70;99.90
6988;DHT22;3534;49.960;8.018;2022-07-06T02:04:20;19.70;99.90
6988;DHT22;3534;49.960;8.018;2022-07-06T02:06:47;19.80;99.90
6988;DHT22;3534;49.960;8.018;2022-07-06T02:09:14;19.70;99.90
6988;DHT22;3534;49.960;8.018;2022-07-06T02:11:42;19.70;99.90
6988;DHT22;3534;49.960;8.018;2022-07-06T02:14:09;19.80;99.90
6988;DHT22;3534;49.960;8.018;2022-07-06T02:16:36;19.70;99.90
6988;DHT22;3534;49.960;8.018;2022-07-06T02:19:02;19.50;99.90
6988;DHT22;3534;49.960;8.018;2022-07-06T02:21:29;19.40;99.90
6988;DHT22;3534;49.960;8.018;2022-07-06T02:23:56;19.40;99.90
6988;DHT22;3534;49.960;8.018;2022-07-06T02:26:22;19.50;99.90
6988;DHT22;3534;49.960;8.018;2022-07-06T02:28:50;19.40;99.90
6988;DHT22;3534;49.960;8.018;2022-07-06T02:31:17;19.50;99.90
6988;DHT22;3534;49.960;8.018;2022-07-06T02:33:44;19.50;99.90
6988;DHT22;3534;49.960;8.018;2022-07-06T02:36:11;19.60;99.90
6988;DHT22;3534;49.960;8.018;2022-07-06T02:38:37;19.60;99.90
6988;DHT22;3534;49.960;8.018;2022-07-06T02:41:04;19.70;99.90
6988;DHT22;3534;49.960;8.018;2022-07-06T02:43:31;19.60;99.90
6988;DHT22;3534;49.960;8.018;2022-07-06T02:45:59;19.60;99.90
6988;DHT22;3534;49.960;8.018;2022-07-06T02:48:25;19.70;99.90
6988;DHT22;3534;49.960;8.018;2022-07-06T02:50:52;19.70;99.90
6988;DHT22;3534;49.960;8.018;2022-07-06T02:53:19;19.70;99.90
6988;DHT22;3534;49.960;8.018;2022-07-06T02:55:46;19.60;99.90
6988;DHT22;3534;49.960;8.018;2022-07-06T02:58:12;19.40;99.90
6988;DHT22;3534;49.960;8.018;2022-07-06T03:00:39;19.50;99.90
6988;DHT22;3534;49.960;8.018;2022-07-06T03:03:07;19.40;99.90
6988;DHT22;3534;49.960;8.018;2022-07-06T03:05:34;19.20;99.90
6988;DHT22;3534;49.960;8.018;2022-07-06T03:08:01;19.00;99.90
6988;DHT22;3534;49.960;8.018;2022-07-06T03:10:28;19.00;99.90
6988;DHT22;3534;49.960;8.018;2022-07-06T03:12:54;18.90;99.90
6988;DHT22;3534;49.960;8.018;2022-07-06T03:15:21;18.80;99.90
6988;DHT22;3534;49.960;8.018;2022-07-06T03:17:48;18.70;99.90
6988;DHT22;3534;49.960;8.018;2022-07-06T03:20:16;18.60;99.90
6988;DHT22;3534;49.960;8.018;2022-07-06T03:22:43;18.80;99.90
6988;DHT22;3534;49.960;8.018;2022-07-06T03:25:09;18.80;99.90
6988;DHT22;3534;49.960;8.018;2022-07-06T03:27:36;18.90;99.90
6988;DHT22;3534;49.960;8.018;2022-07-06T03:30:03;18.90;99.90
6988;DHT22;3534;49.960;8.018;2022-07-06T03:32:30;18.90;99.90
6988;DHT22;3534;49.960;8.018;2022-07-06T03:34:57;18.80;99.90
6988;DHT22;3534;49.960;8.018;2022-07-06T03:37:25;18.80;99.90
6988;DHT22;3534;49.960;8.018;2022-07-06T03:39:52;18.80;99.90
6988;DHT22;3534;49.960;8.018;2022-07-06T03:42:18;18.80;99.90
6988;DHT22;3534;49.960;8.018;2022-07-06T03:44:45;18.80;99.90
6988;DHT22;3534;49.960;8.018;2022-07-06T03:47:12;18.90;99.90
6988;DHT22;3534;49.960;8.018;2022-07-06T03:49:38;18.90;99.90
6988;DHT22;3534;49.960;8.018;2022-07-06T03:52:05;18.80;99.90
6988;DHT22;3534;49.960;8.018;2022-07-06T03:54:33;18.70;99.90
6988;DHT22;3534;49.960;8.018;2022-07-06T03:57:00;18.70;99.90
6988;DHT22;3534;49.960;8.018;2022-07-06T03:59:27;18.70;99.90
6988;DHT22;3534;49.960;8.018;2022-07-06T04:01:53;18.50;99.90
6988;DHT22;3534;49.960;8.018;2022-07-06T04:04:20;18.40;99.90
6988;DHT22;3534;49.960;8.018;2022-07-06T04:06:47;18.40;99.90
6988;DHT22;3534;49.960;8.018;2022-07-06T04:09:13;18.20;99.90
6988;DHT22;3534;49.960;8.018;2022-07-06T04:11:42;18.20;99.90
6988;DHT22;3534;49.960;8.018;2022-07-06T04:14:08;18.30;99.90
6988;DHT22;3534;49.960;8.018;2022-07-06T04:16:35;18.20;99.90
6988;DHT22;3534;49.960;8.018;2022-07-06T04:19:02;18.10;99.90
6988;DHT22;3534;49.960;8.018;2022-07-06T04:21:28;18.00;99.90
6988;DHT22;3534;49.960;8.018;2022-07-06T04:23:55;17.90;99.90
6988;DHT22;3534;49.960;8.018;2022-07-06T04:26:22;18.00;99.90
6988;DHT22;3534;49.960;8.018;2022-07-06T04:28:50;17.80;99.90
6988;DHT22;3534;49.960;8.018;2022-07-06T04:31:17;17.80;99.90
6988;DHT22;3534;49.960;8.018;2022-07-06T04:33:43;17.80;99.90
6988;DHT22;3534;49.960;8.018;2022-07-06T04:36:10;17.80;99.90
6988;DHT22;3534;49.960;8.018;2022-07-06T04:38:37;17.70;99.90
6988;DHT22;3534;49.960;8.018;2022-07-06T04:41:04;17.60;99.90
6988;DHT22;3534;49.960;8.018;2022-07-06T04:43:31;17.60;99.90
6988;DHT22;3534;49.960;8.018;2022-07-06T04:45:59;17.60;99.90
6988;DHT22;3534;49.960;8.018;2022-07-06T04:48:27;17.50;99.90
6988;DHT22;3534;49.960;8.018;2022-07-06T04:50:54;17.60;99.90
6988;DHT22;3534;49.960;8.018;2022-07-06T04:53:20;17.50;99.90
6988;DHT22;3534;49.960;8.018;2022-07-06T04:55:47;17.50;99.90
6988;DHT22;3534;49.960;8.018;2022-07-06T04:58:14;17.50;99.90
6988;DHT22;3534;49.960;8.018;2022-07-06T05:00:40;17.60;99.90
6988;DHT22;3534;49.960;8.018;2022-07-06T05:03:08;17.70;99.90
6988;DHT22;3534;49.960;8.018;2022-07-06T05:05:35;17.70;99.90
6988;DHT22;3534;49.960;8.018;2022-07-06T05:08:02;17.90;99.90
6988;DHT22;3534;49.960;8.018;2022-07-06T05:10:29;17.70;99.90
6988;DHT22;3534;49.960;8.018;2022-07-06T05:12:56;17.60;99.90
6988;DHT22;3534;49.960;8.018;2022-07-06T05:15:23;17.70;99.90
6988;DHT22;3534;49.960;8.018;2022-07-06T05:17:50;17.70;99.90
6988;DHT22;3534;49.960;8.018;2022-07-06T05:20:18;17.70;99.90
6988;DHT22;3534;49.960;8.018;2022-07-06T05:22:45;17.70;99.90
6988;DHT22;3534;49.960;8.018;2022-07-06T05:25:11;17.80;99.90
6988;DHT22;3534;49.960;8.018;2022-07-06T05:27:38;17.60;99.90
6988;DHT22;3534;49.960;8.018;2022-07-06T05:30:06;17.50;99.90
6988;DHT22;3534;49.960;8.018;2022-07-06T05:32:33;17.50;99.90
6988;DHT22;3534;49.960;8.018;2022-07-06T05:34:59;17.50;99.90
6988;DHT22;3534;49.960;8.018;2022-07-06T05:37:27;17.40;99.90
6988;DHT22;3534;49.960;8.018;2022-07-06T05:39:54;17.60;99.90
6988;DHT22;3534;49.960;8.018;2022-07-06T05:42:21;17.60;99.90
6988;DHT22;3534;49.960;8.018;2022-07-06T05:44:47;17.60;99.90
6988;DHT22;3534;49.960;8.018;2022-07-06T05:47:14;17.70;99.90
6988;DHT22;3534;49.960;8.018;2022-07-06T05:49:58;17.70;99.90
6988;DHT22;3534;49.960;8.018;2022-07-06T05:52:43;17.90;99.90
6988;DHT22;3534;49.960;8.018;2022-07-06T05:55:11;17.90;99.90
6988;DHT22;3534;49.960;8.018;2022-07-06T05:57:39;18.00;99.90
6988;DHT22;3534;49.960;8.018;2022-07-06T06:00:07;17.90;99.90
6988;DHT22;3534;49.960;8.018;2022-07-06T06:02:38;17.90;99.90
6988;DHT22;3534;49.960;8.018;2022-07-06T06:05:06;17.90;99.90
6988;DHT22;3534;49.960;8.018;2022-07-06T06:07:33;17.90;99.90
6988;DHT22;3534;49.960;8.018;2022-07-06T06:10:03;17.80;99.90
6988;DHT22;3534;49.960;8.018;2022-07-06T06:12:30;17.70;99.90
6988;DHT22;3534;49.960;8.018;2022-07-06T06:14:57;17.60;99.90
6988;DHT22;3534;49.960;8.018;2022-07-06T06:17:23;17.70;99.90
6988;DHT22;3534;49.960;8.018;2022-07-06T06:19:50;17.80;99.90
6988;DHT22;3534;49.960;8.018;2022-07-06T06:22:17;17.90;99.90
6988;DHT22;3534;49.960;8.018;2022-07-06T06:24:44;17.90;99.90
6988;DHT22;3534;49.960;8.018;2022-07-06T06:27:12;18.10;99.90
6988;DHT22;3534;49.960;8.018;2022-07-06T06:29:38;18.20;99.90
6988;DHT22;3534;49.960;8.018;2022-07-06T06:32:07;18.20;99.90
6988;DHT22;3534;49.960;8.018;2022-07-06T06:34:33;18.10;99.90
6988;DHT22;3534;49.960;8.018;2022-07-06T06:37:00;18.10;99.90
6988;DHT22;3534;49.960;8.018;2022-07-06T06:39:27;18.10;99.90
6988;DHT22;3534;49.960;8.018;2022-07-06T06:41:54;18.10;99.90
6988;DHT22;3534;49.960;8.018;2022-07-06T06:44:22;18.00;99.90
6988;DHT22;3534;49.960;8.018;2022-07-06T06:46:49;17.90;99.90
6988;DHT22;3534;49.960;8.018;2022-07-06T06:49:15;18.00;99.90
6988;DHT22;3534;49.960;8.018;2022-07-06T06:51:42;17.90;99.90
6988;DHT22;3534;49.960;8.018;2022-07-06T06:54:09;17.90;99.90
6988;DHT22;3534;49.960;8.018;2022-07-06T06:56:36;17.90;99.90
6988;DHT22;3534;49.960;8.018;2022-07-06T06:59:02;17.80;99.90
6988;DHT22;3534;49.960;8.018;2022-07-06T07:01:30;17.70;99.90
6988;DHT22;3534;49.960;8.018;2022-07-06T07:03:58;17.80;99.90
6988;DHT22;3534;49.960;8.018;2022-07-06T07:06:25;18.00;99.90
6988;DHT22;3534;49.960;8.018;2022-07-06T07:08:52;18.10;99.90
6988;DHT22;3534;49.960;8.018;2022-07-06T07:11:19;18.20;99.90
6988;DHT22;3534;49.960;8.018;2022-07-06T07:13:46;18.20;99.90
6988;DHT22;3534;49.960;8.018;2022-07-06T07:16:13;18.10;99.90
6988;DHT22;3534;49.960;8.018;2022-07-06T07:18:41;18.10;99.90
6988;DHT22;3534;49.960;8.018;2022-07-06T07:21:08;18.10;99.90
6988;DHT22;3534;49.960;8.018;2022-07-06T07:23:34;18.20;99.90
6988;DHT22;3534;49.960;8.018;2022-07-06T07:26:01;18.20;99.90
6988;DHT22;3534;49.960;8.018;2022-07-06T07:28:28;18.20;99.90
6988;DHT22;3534;49.960;8.018;2022-07-06T07:30:55;18.30;99.90
6988;DHT22;3534;49.960;8.018;2022-07-06T07:33:21;18.30;99.90
6988;DHT22;3534;49.960;8.018;2022-07-06T07:35:49;18.30;99.90
6988;DHT22;3534;49.960;8.018;2022-07-06T07:38:16;18.30;99.90
6988;DHT22;3534;49.960;8.018;2022-07-06T07:40:43;18.20;99.90
6988;DHT22;3534;49.960;8.018;2022-07-06T07:43:10;18.20;99.90
6988;DHT22;3534;49.960;8.018;2022-07-06T07:45:37;18.20;99.90
6988;DHT22;3534;49.960;8.018;2022-07-06T07:48:05;18.40;99.90
6988;DHT22;3534;49.960;8.018;2022-07-06T07:50:32;18.50;99.90
6988;DHT22;3534;49.960;8.018;2022-07-06T07:53:01;18.60;99.90
6988;DHT22;3534;49.960;8.018;2022-07-06T07:55:28;18.50;99.90
6988;DHT22;3534;49.960;8.018;2022-07-06T07:57:55;18.50;99.90
6988;DHT22;3534;49.960;8.018;2022-07-06T08:00:22;18.50;99.90
6988;DHT22;3534;49.960;8.018;2022-07-06T08:02:49;18.60;99.90
6988;DHT22;3534;49.960;8.018;2022-07-06T08:05:16;18.70;99.90
6988;DHT22;3534;49.960;8.018;2022-07-06T08:07:44;18.80;99.90
6988;DHT22;3534;49.960;8.018;2022-07-06T08:10:12;18.80;99.90
6988;DHT22;3534;49.960;8.018;2022-07-06T08:12:39;18.90;99.90
6988;DHT22;3534;49.960;8.018;2022-07-06T08:15:07;19.00;99.90
6988;DHT22;3534;49.960;8.018;2022-07-06T08:17:34;19.00;99.90
6988;DHT22;3534;49.960;8.018;2022-07-06T08:20:00;19.10;99.90
6988;DHT22;3534;49.960;8.018;2022-07-06T08:22:27;19.10;99.90
6988;DHT22;3534;49.960;8.018;2022-07-06T08:24:55;19.10;99.90
6988;DHT22;3534;49.960;8.018;2022-07-06T08:27:23;19.20;99.90
6988;DHT22;3534;49.960;8.018;2022-07-06T08:29:50;19.10;99.90
6988;DHT22;3534;49.960;8.018;2022-07-06T08:32:16;19.20;99.90
6988;DHT22;3534;49.960;8.018;2022-07-06T08:34:45;19.20;99.90
6988;DHT22;3534;49.960;8.018;2022-07-06T08:37:11;19.30;99.90
6988;DHT22;3534;49.960;8.018;2022-07-06T08:39:38;19.30;99.90
6988;DHT22;3534;49.960;8.018;2022-07-06T08:42:05;19.30;99.90
6988;DHT22;3534;49.960;8.018;2022-07-06T08:44:36;19.40;99.90
6988;DHT22;3534;49.960;8.018;2022-07-06T08:47:05;19.50;99.90
6988;DHT22;3534;49.960;8.018;2022-07-06T08:49:32;19.60;99.90
6988;DHT22;3534;49.960;8.018;2022-07-06T08:52:01;19.60;99.90
6988;DHT22;3534;49.960;8.018;2022-07-06T08:54:29;19.50;99.90
6988;DHT22;3534;49.960;8.018;2022-07-06T08:56:55;19.60;99.90
6988;DHT22;3534;49.960;8.018;2022-07-06T08:59:22;19.50;99.90
6988;DHT22;3534;49.960;8.018;2022-07-06T09:01:51;19.60;99.90
6988;DHT22;3534;49.960;8.018;2022-07-06T09:04:19;19.70;99.90
6988;DHT22;3534;49.960;8.018;2022-07-06T09:06:49;19.70;99.90
6988;DHT22;3534;49.960;8.018;2022-07-06T09:09:20;19.60;99.90
6988;DHT22;3534;49.960;8.018;2022-07-06T09:11:48;19.60;99.90
6988;DHT22;3534;49.960;8.018;2022-07-06T09:14:14;19.60;99.90
6988;DHT22;3534;49.960;8.018;2022-07-06T09:16:41;19.70;99.90
6988;DHT22;3534;49.960;8.018;2022-07-06T09:19:12;19.80;99.90
6988;DHT22;3534;49.960;8.018;2022-07-06T09:21:40;19.80;99.90
6988;DHT22;3534;49.960;8.018;2022-07-06T09:24:10;19.90;99.90
6988;DHT22;3534;49.960;8.018;2022-07-06T09:26:37;20.00;99.90
6988;DHT22;3534;49.960;8.018;2022-07-06T09:29:04;20.00;99.90
6988;DHT22;3534;49.960;8.018;2022-07-06T09:31:31;20.00;99.90
6988;DHT22;3534;49.960;8.018;2022-07-06T09:33:59;20.00;99.90
6988;DHT22;3534;49.960;8.018;2022-07-06T09:36:43;20.10;99.90
6988;DHT22;3534;49.960;8.018;2022-07-06T09:39:18;20.10;99.90
6988;DHT22;3534;49.960;8.018;2022-07-06T09:41:45;20.10;99.90
6988;DHT22;3534;49.960;8.018;2022-07-06T09:44:11;20.10;99.90
6988;DHT22;3534;49.960;8.018;2022-07-06T09:46:40;20.00;99.90
6988;DHT22;3534;49.960;8.018;2022-07-06T09:49:07;20.10;99.90
6988;DHT22;3534;49.960;8.018;2022-07-06T09:51:36;20.20;99.90
6988;DHT22;3534;49.960;8.018;2022-07-06T09:54:06;20.10;99.90
6988;DHT22;3534;49.960;8.018;2022-07-06T09:56:37;20.20;99.90
6988;DHT22;3534;49.960;8.018;2022-07-06T09:59:07;20.40;99.90
6988;DHT22;3534;49.960;8.018;2022-07-06T10:01:35;20.50;99.90
6988;DHT22;3534;49.960;8.018;2022-07-06T10:04:02;20.60;99.90
6988;DHT22;3534;49.960;8.018;2022-07-06T10:06:28;20.70;99.90
6988;DHT22;3534;49.960;8.018;2022-07-06T10:08:57;20.70;99.90
6988;DHT22;3534;49.960;8.018;2022-07-06T10:11:28;20.70;99.90
6988;DHT22;3534;49.960;8.018;2022-07-06T10:13:56;20.80;99.90
6988;DHT22;3534;49.960;8.018;2022-07-06T10:16:24;20.90;99.90
6988;DHT22;3534;49.960;8.018;2022-07-06T10:18:50;20.90;99.90
6988;DHT22;3534;49.960;8.018;2022-07-06T10:21:19;20.80;99.90
6988;DHT22;3534;49.960;8.018;2022-07-06T10:23:47;20.90;99.90
6988;DHT22;3534;49.960;8.018;2022-07-06T10:26:15;20.80;99.90
6988;DHT22;3534;49.960;8.018;2022-07-06T10:28:44;20.90;99.90
6988;DHT22;3534;49.960;8.018;2022-07-06T10:31:13;20.90;99.90
6988;DHT22;3534;49.960;8.018;2022-07-06T10:33:41;20.90;99.90
6988;DHT22;3534;49.960;8.018;2022-07-06T10:36:08;20.80;99.30
6988;DHT22;3534;49.960;8.018;2022-07-06T10:38:36;20.80;99.90
6988;DHT22;3534;49.960;8.018;2022-07-06T10:41:04;20.80;98.50
6988;DHT22;3534;49.960;8.018;2022-07-06T10:43:35;20.60;98.00
6988;DHT22;3534;49.960;8.018;2022-07-06T10:46:08;20.60;98.30
6988;DHT22;3534;49.960;8.018;2022-07-06T10:48:36;20.60;98.90
6988;DHT22;3534;49.960;8.018;2022-07-06T10:51:03;20.80;99.50
6988;DHT22;3534;49.960;8.018;2022-07-06T10:53:32;20.80;99.90
6988;DHT22;3534;49.960;8.018;2022-07-06T10:56:02;21.00;99.30
6988;DHT22;3534;49.960;8.018;2022-07-06T10:58:50;21.10;98.90
6988;DHT22;3534;49.960;8.018;2022-07-06T11:01:21;21.00;98.80
6988;DHT22;3534;49.960;8.018;2022-07-06T11:03:49;20.90;99.90
6988;DHT22;3534;49.960;8.018;2022-07-06T11:06:18;21.00;99.50
6988;DHT22;3534;49.960;8.018;2022-07-06T11:08:50;21.00;99.90
6988;DHT22;3534;49.960;8.018;2022-07-06T11:11:19;21.00;96.70
6988;DHT22;3534;49.960;8.018;2022-07-06T11:13:51;21.00;96.00
6988;DHT22;3534;49.960;8.018;2022-07-06T11:16:21;21.10;96.70
6988;DHT22;3534;49.960;8.018;2022-07-06T11:18:58;21.10;96.60
6988;DHT22;3534;49.960;8.018;2022-07-06T11:21:33;21.20;97.20
6988;DHT22;3534;49.960;8.018;2022-07-06T11:24:00;21.30;99.90
6988;DHT22;3534;49.960;8.018;2022-07-06T11:26:27;21.50;99.90
6988;DHT22;3534;49.960;8.018;2022-07-06T11:28:55;21.60;99.90
6988;DHT22;3534;49.960;8.018;2022-07-06T11:31:23;21.70;99.90
6988;DHT22;3534;49.960;8.018;2022-07-06T11:33:50;21.80;97.80
6988;DHT22;3534;49.960;8.018;2022-07-06T11:36:18;21.80;99.90
6988;DHT22;3534;49.960;8.018;2022-07-06T11:38:46;21.90;99.40
6988;DHT22;3534;49.960;8.018;2022-07-06T11:41:14;21.90;96.00
6988;DHT22;3534;49.960;8.018;2022-07-06T11:43:42;21.80;95.40
6988;DHT22;3534;49.960;8.018;2022-07-06T11:46:34;21.70;94.00
6988;DHT22;3534;49.960;8.018;2022-07-06T11:49:02;21.70;99.90
6988;DHT22;3534;49.960;8.018;2022-07-06T11:51:32;21.90;99.90
6988;DHT22;3534;49.960;8.018;2022-07-06T11:54:01;21.90;94.50
6988;DHT22;3534;49.960;8.018;2022-07-06T11:56:29;22.00;93.70
6988;DHT22;3534;49.960;8.018;2022-07-06T11:58:57;22.00;91.70
6988;DHT22;3534;49.960;8.018;2022-07-06T12:01:26;22.00;92.40
6988;DHT22;3534;49.960;8.018;2022-07-06T12:03:58;22.00;92.30
6988;DHT22;3534;49.960;8.018;2022-07-06T12:06:26;22.00;96.40
6988;DHT22;3534;49.960;8.018;2022-07-06T12:08:54;22.10;92.90
6988;DHT22;3534;49.960;8.018;2022-07-06T12:11:23;22.20;97.90
6988;DHT22;3534;49.960;8.018;2022-07-06T12:13:50;22.30;95.50
6988;DHT22;3534;49.960;8.018;2022-07-06T12:16:19;22.30;99.90
6988;DHT22;3534;49.960;8.018;2022-07-06T12:18:49;22.40;97.50
6988;DHT22;3534;49.960;8.018;2022-07-06T12:21:19;22.30;92.80
6988;DHT22;3534;49.960;8.018;2022-07-06T12:23:48;22.30;98.20
6988;DHT22;3534;49.960;8.018;2022-07-06T12:26:17;22.40;93.40
6988;DHT22;3534;49.960;8.018;2022-07-06T12:28:44;22.40;97.50
6988;DHT22;3534;49.960;8.018;2022-07-06T12:31:11;22.50;99.90
6988;DHT22;3534;49.960;8.018;2022-07-06T12:33:57;22.70;99.90
6988;DHT22;3534;49.960;8.018;2022-07-06T12:36:25;22.90;99.90
6988;DHT22;3534;49.960;8.018;2022-07-06T12:38:52;23.10;99.90
6988;DHT22;3534;49.960;8.018;2022-07-06T12:41:30;23.30;94.00
6988;DHT22;3534;49.960;8.018;2022-07-06T12:44:08;23.30;91.70
6988;DHT22;3534;49.960;8.018;2022-07-06T12:46:36;23.20;92.30
6988;DHT22;3534;49.960;8.018;2022-07-06T12:49:12;23.20;90.50
6988;DHT22;3534;49.960;8.018;2022-07-06T12:51:57;23.20;98.30
6988;DHT22;3534;49.960;8.018;2022-07-06T12:54:25;23.30;96.90
6988;DHT22;3534;49.960;8.018;2022-07-06T12:57:07;23.40;91.70
6988;DHT22;3534;49.960;8.018;2022-07-06T12:59:37;23.50;99.90
6988;DHT22;3534;49.960;8.018;2022-07-06T13:02:04;23.60;98.50
6988;DHT22;3534;49.960;8.018;2022-07-06T13:04:32;23.80;98.50
6988;DHT22;3534;49.960;8.018;2022-07-06T13:07:01;23.90;92.60
6988;DHT22;3534;49.960;8.018;2022-07-06T13:09:28;24.00;97.60
6988;DHT22;3534;49.960;8.018;2022-07-06T13:11:54;24.20;91.60
6988;DHT22;3534;49.960;8.018;2022-07-06T13:14:21;24.20;92.80
6988;DHT22;3534;49.960;8.018;2022-07-06T13:16:48;24.40;90.60
6988;DHT22;3534;49.960;8.018;2022-07-06T13:19:15;24.50;98.70
6988;DHT22;3534;49.960;8.018;2022-07-06T13:21:42;24.70;92.70
6988;DHT22;3534;49.960;8.018;2022-07-06T13:24:11;24.90;89.40
6988;DHT22;3534;49.960;8.018;2022-07-06T13:26:38;25.10;92.90
6988;DHT22;3534;49.960;8.018;2022-07-06T13:29:05;25.20;90.80
6988;DHT22;3534;49.960;8.018;2022-07-06T13:31:32;25.00;83.30
6988;DHT22;3534;49.960;8.018;2022-07-06T13:33:59;24.90;86.30
6988;DHT22;3534;49.960;8.018;2022-07-06T13:36:26;24.80;94.20
6988;DHT22;3534;49.960;8.018;2022-07-06T13:38:53;24.90;85.10
6988;DHT22;3534;49.960;8.018;2022-07-06T13:41:21;24.80;82.20
6988;DHT22;3534;49.960;8.018;2022-07-06T13:43:47;24.90;83.70
6988;DHT22;3534;49.960;8.018;2022-07-06T13:46:14;25.10;90.90
6988;DHT22;3534;49.960;8.018;2022-07-06T13:48:42;25.20;81.30
6988;DHT22;3534;49.960;8.018;2022-07-06T13:51:09;25.10;80.40
6988;DHT22;3534;49.960;8.018;2022-07-06T13:53:36;25.10;82.00
6988;DHT22;3534;49.960;8.018;2022-07-06T13:56:04;25.40;82.90
6988;DHT22;3534;49.960;8.018;2022-07-06T13:58:32;25.40;80.50
6988;DHT22;3534;49.960;8.018;2022-07-06T14:00:59;25.20;87.20
6988;DHT22;3534;49.960;8.018;2022-07-06T14:03:25;25.20;80.50
6988;DHT22;3534;49.960;8.018;2022-07-06T14:05:55;25.40;82.30
6988;DHT22;3534;49.960;8.018;2022-07-06T14:08:22;25.40;77.90
6988;DHT22;3534;49.960;8.018;2022-07-06T14:10:49;25.80;79.40
6988;DHT22;3534;49.960;8.018;2022-07-06T14:13:15;26.00;85.60
6988;DHT22;3534;49.960;8.018;2022-07-06T14:15:44;26.30;78.40
6988;DHT22;3534;49.960;8.018;2022-07-06T14:18:11;26.50;91.00
6988;DHT22;3534;49.960;8.018;2022-07-06T14:20:37;26.60;80.90
6988;DHT22;3534;49.960;8.018;2022-07-06T14:23:04;26.30;80.20
6988;DHT22;3534;49.960;8.018;2022-07-06T14:25:31;26.40;92.30
6988;DHT22;3534;49.960;8.018;2022-07-06T14:27:58;26.60;92.10
6988;DHT22;3534;49.960;8.018;2022-07-06T14:30:25;26.70;90.00
6988;DHT22;3534;49.960;8.018;2022-07-06T14:32:53;26.80;92.40
6988;DHT22;3534;49.960;8.018;2022-07-06T14:35:20;26.50;79.30
6988;DHT22;3534;49.960;8.018;2022-07-06T14:37:48;26.00;84.40
6988;DHT22;3534;49.960;8.018;2022-07-06T14:40:14;25.90;91.80
6988;DHT22;3534;49.960;8.018;2022-07-06T14:42:41;25.50;76.30
6988;DHT22;3534;49.960;8.018;2022-07-06T14:45:08;25.20;77.70
6988;DHT22;3534;49.960;8.018;2022-07-06T14:47:35;24.80;77.60
6988;DHT22;3534;49.960;8.018;2022-07-06T14:50:04;24.50;80.20
6988;DHT22;3534;49.960;8.018;2022-07-06T14:52:31;24.40;78.30
6988;DHT22;3534;49.960;8.018;2022-07-06T14:54:58;24.60;90.10
6988;DHT22;3534;49.960;8.018;2022-07-06T14:57:26;24.70;84.40
6988;DHT22;3534;49.960;8.018;2022-07-06T14:59:52;24.70;91.30
6988;DHT22;3534;49.960;8.018;2022-07-06T15:02:19;24.80;84.00
6988;DHT22;3534;49.960;8.018;2022-07-06T15:04:46;24.60;83.40
6988;DHT22;3534;49.960;8.018;2022-07-06T15:07:14;24.40;80.30
6988;DHT22;3534;49.960;8.018;2022-07-06T15:09:40;24.40;85.70
6988;DHT22;3534;49.960;8.018;2022-07-06T15:12:08;24.40;85.10
6988;DHT22;3534;49.960;8.018;2022-07-06T15:14:35;24.30;86.10
6988;DHT22;3534;49.960;8.018;2022-07-06T15:17:02;24.20;85.70
6988;DHT22;3534;49.960;8.018;2022-07-06T15:19:29;24.30;82.70
6988;DHT22;3534;49.960;8.018;2022-07-06T15:21:56;24.40;90.00
6988;DHT22;3534;49.960;8.018;2022-07-06T15:24:24;24.40;82.70
6988;DHT22;3534;49.960;8.018;2022-07-06T15:26:51;24.40;81.90
6988;DHT22;3534;49.960;8.018;2022-07-06T15:29:18;24.60;94.10
6988;DHT22;3534;49.960;8.018;2022-07-06T15:31:45;24.80;81.30
6988;DHT22;3534;49.960;8.018;2022-07-06T15:34:11;24.90;92.20
6988;DHT22;3534;49.960;8.018;2022-07-06T15:36:39;24.70;79.50
6988;DHT22;3534;49.960;8.018;2022-07-06T15:39:06;24.80;80.70
6988;DHT22;3534;49.960;8.018;2022-07-06T15:41:34;24.90;85.90
6988;DHT22;3534;49.960;8.018;2022-07-06T15:44:00;24.90;78.10
6988;DHT22;3534;49.960;8.018;2022-07-06T15:46:27;25.10;90.20
6988;DHT22;3534;49.960;8.018;2022-07-06T15:48:54;25.20;78.80
6988;DHT22;3534;49.960;8.018;2022-07-06T15:51:21;25.00;79.40
6988;DHT22;3534;49.960;8.018;2022-07-06T15:53:47;24.90;78.80
6988;DHT22;3534;49.960;8.018;2022-07-06T15:56:15;24.90;81.20
6988;DHT22;3534;49.960;8.018;2022-07-06T15:58:43;25.00;79.00
6988;DHT22;3534;49.960;8.018;2022-07-06T16:01:10;25.00;76.70
6988;DHT22;3534;49.960;8.018;2022-07-06T16:03:37;25.10;77.40
6988;DHT22;3534;49.960;8.018;2022-07-06T16:06:04;25.00;83.40